Aviation Digital Data Service (ADDS)

Output produced by METARs form (2240 UTC 30 March 2017)
found at http://www.aviationweather.gov/adds/metars/
 
TGPY 302147Z 3100/3124 08010KT 9999 FEW019 
     BECMG 3110/3112 09014KT FEW023